sensor_id;sensor_type;location;lat;lon;timestamp;P1;durP1;ratioP1;P2;durP2;ratioP2
70014;SDS011;57358;51.094;6.760;2024-03-23T00:54:22;7.7;;;16.4;;
70014;SDS011;57358;51.094;6.760;2024-03-23T00:59:22;6.3;;;9.5;;
70014;SDS011;57358;51.094;6.760;2024-03-23T01:04:21;8.1;;;15.2;;
70014;SDS011;57358;51.094;6.760;2024-03-23T01:09:20;9;;;20.8;;
70014;SDS011;57358;51.094;6.760;2024-03-23T01:14:19;8.6;;;15.7;;
70014;SDS011;57358;51.094;6.760;2024-03-23T01:19:19;8.1;;;14.9;;
70014;SDS011;57358;51.094;6.760;2024-03-23T01:24:18;8.4;;;17.3;;
70014;SDS011;57358;51.094;6.760;2024-03-23T01:29:17;9.3;;;22.2;;
70014;SDS011;57358;51.094;6.760;2024-03-23T01:34:17;9.7;;;24.7;;
70014;SDS011;57358;51.094;6.760;2024-03-23T01:39:16;10.1;;;22.5;;
70014;SDS011;57358;51.094;6.760;2024-03-23T01:44:15;11;;;29;;
70014;SDS011;57358;51.094;6.760;2024-03-23T01:49:14;8.3;;;15.6;;
70014;SDS011;57358;51.094;6.760;2024-03-23T01:54:14;6.9;;;13.4;;
70014;SDS011;57358;51.094;6.760;2024-03-23T01:59:13;5.2;;;12.8;;
70014;SDS011;57358;51.094;6.760;2024-03-23T02:04:12;5.3;;;12;;
70014;SDS011;57358;51.094;6.760;2024-03-23T02:09:12;4.8;;;12;;
70014;SDS011;57358;51.094;6.760;2024-03-23T02:14:11;5.2;;;9.8;;
70014;SDS011;57358;51.094;6.760;2024-03-23T02:19:10;5.4;;;11.9;;
70014;SDS011;57358;51.094;6.760;2024-03-23T02:24:09;5;;;10.1;;
70014;SDS011;57358;51.094;6.760;2024-03-23T02:29:09;5.2;;;15.3;;
70014;SDS011;57358;51.094;6.760;2024-03-23T02:34:08;5.6;;;12.8;;
70014;SDS011;57358;51.094;6.760;2024-03-23T02:39:07;4.9;;;11;;
70014;SDS011;57358;51.094;6.760;2024-03-23T02:44:07;5.5;;;17.8;;
70014;SDS011;57358;51.094;6.760;2024-03-23T02:49:06;4.9;;;11.3;;
70014;SDS011;57358;51.094;6.760;2024-03-23T02:54:05;5.1;;;13.9;;
70014;SDS011;57358;51.094;6.760;2024-03-23T02:59:05;5.1;;;7.8;;
70014;SDS011;57358;51.094;6.760;2024-03-23T03:04:04;5.1;;;14.4;;
70014;SDS011;57358;51.094;6.760;2024-03-23T03:09:03;5.3;;;12.5;;
70014;SDS011;57358;51.094;6.760;2024-03-23T03:14:03;5;;;13;;
70014;SDS011;57358;51.094;6.760;2024-03-23T03:19:02;5.1;;;8.3;;
70014;SDS011;57358;51.094;6.760;2024-03-23T03:24:01;4.6;;;9;;
70014;SDS011;57358;51.094;6.760;2024-03-23T03:29:00;4.7;;;12.1;;
70014;SDS011;57358;51.094;6.760;2024-03-23T03:34:00;5;;;11.5;;
70014;SDS011;57358;51.094;6.760;2024-03-23T03:38:59;4.8;;;8.7;;
70014;SDS011;57358;51.094;6.760;2024-03-23T03:43:58;5.4;;;11.1;;
70014;SDS011;57358;51.094;6.760;2024-03-23T03:48:58;4.9;;;9.3;;
70014;SDS011;57358;51.094;6.760;2024-03-23T03:53:57;5.5;;;12.2;;
70014;SDS011;57358;51.094;6.760;2024-03-23T03:58:56;5.2;;;10.4;;
70014;SDS011;57358;51.094;6.760;2024-03-23T04:03:56;5.2;;;11.5;;
70014;SDS011;57358;51.094;6.760;2024-03-23T04:08:55;4.8;;;7.4;;
70014;SDS011;57358;51.094;6.760;2024-03-23T04:13:54;5.3;;;10.2;;
70014;SDS011;57358;51.094;6.760;2024-03-23T04:18:54;6.2;;;15;;
70014;SDS011;57358;51.094;6.760;2024-03-23T04:23:53;5.3;;;10.7;;
70014;SDS011;57358;51.094;6.760;2024-03-23T04:28:53;5.2;;;6.9;;
70014;SDS011;57358;51.094;6.760;2024-03-23T04:33:52;5.9;;;12.7;;
70014;SDS011;57358;51.094;6.760;2024-03-23T04:38:51;5.2;;;9;;
70014;SDS011;57358;51.094;6.760;2024-03-23T04:43:50;5.7;;;13.2;;
70014;SDS011;57358;51.094;6.760;2024-03-23T04:48:49;5.3;;;11.2;;
70014;SDS011;57358;51.094;6.760;2024-03-23T04:53:49;5.8;;;15;;
70014;SDS011;57358;51.094;6.760;2024-03-23T04:58:48;5.9;;;12.2;;
70014;SDS011;57358;51.094;6.760;2024-03-23T05:03:47;6.2;;;14;;
70014;SDS011;57358;51.094;6.760;2024-03-23T05:08:47;5.9;;;13.6;;
70014;SDS011;57358;51.094;6.760;2024-03-23T05:13:46;5.9;;;17;;
70014;SDS011;57358;51.094;6.760;2024-03-23T05:18:45;5.7;;;16.1;;
70014;SDS011;57358;51.094;6.760;2024-03-23T05:23:44;6.5;;;17;;
70014;SDS011;57358;51.094;6.760;2024-03-23T05:28:44;6.4;;;15.4;;
70014;SDS011;57358;51.094;6.760;2024-03-23T05:33:43;5.9;;;13.7;;
70014;SDS011;57358;51.094;6.760;2024-03-23T05:38:42;6.5;;;16.3;;
70014;SDS011;57358;51.094;6.760;2024-03-23T05:43:42;6.4;;;16.6;;
70014;SDS011;57358;51.094;6.760;2024-03-23T05:48:41;6.7;;;15.5;;
70014;SDS011;57358;51.094;6.760;2024-03-23T05:53:40;6.2;;;16.1;;
70014;SDS011;57358;51.094;6.760;2024-03-23T05:58:39;7.4;;;16;;
70014;SDS011;57358;51.094;6.760;2024-03-23T06:03:39;5.8;;;18.8;;
70014;SDS011;57358;51.094;6.760;2024-03-23T06:08:38;5.6;;;13.6;;
70014;SDS011;57358;51.094;6.760;2024-03-23T06:13:37;6.5;;;15.1;;
70014;SDS011;57358;51.094;6.760;2024-03-23T06:18:36;6.4;;;11.4;;
70014;SDS011;57358;51.094;6.760;2024-03-23T06:23:36;6.4;;;15.2;;
70014;SDS011;57358;51.094;6.760;2024-03-23T06:28:35;6.2;;;16.9;;
70014;SDS011;57358;51.094;6.760;2024-03-23T06:33:34;6.9;;;15.2;;
70014;SDS011;57358;51.094;6.760;2024-03-23T06:38:34;6.8;;;19;;
70014;SDS011;57358;51.094;6.760;2024-03-23T06:43:33;7.5;;;17.9;;
70014;SDS011;57358;51.094;6.760;2024-03-23T06:48:32;7.1;;;12.3;;
70014;SDS011;57358;51.094;6.760;2024-03-23T06:53:31;7.7;;;14.7;;
70014;SDS011;57358;51.094;6.760;2024-03-23T06:58:31;8;;;18.7;;
70014;SDS011;57358;51.094;6.760;2024-03-23T07:03:30;7.7;;;22.1;;
70014;SDS011;57358;51.094;6.760;2024-03-23T07:08:29;8;;;20.3;;
70014;SDS011;57358;51.094;6.760;2024-03-23T07:13:28;8.1;;;22.9;;
70014;SDS011;57358;51.094;6.760;2024-03-23T07:18:28;7.7;;;15.9;;
70014;SDS011;57358;51.094;6.760;2024-03-23T07:23:27;8;;;17.3;;
70014;SDS011;57358;51.094;6.760;2024-03-23T07:28:27;8.4;;;19.7;;
70014;SDS011;57358;51.094;6.760;2024-03-23T07:33:26;7.6;;;17.1;;
70014;SDS011;57358;51.094;6.760;2024-03-23T07:38:26;8.8;;;20.2;;
70014;SDS011;57358;51.094;6.760;2024-03-23T07:43:24;9.4;;;19.9;;
70014;SDS011;57358;51.094;6.760;2024-03-23T07:48:24;9.7;;;16.4;;
70014;SDS011;57358;51.094;6.760;2024-03-23T07:53:23;10.1;;;20;;
70014;SDS011;57358;51.094;6.760;2024-03-23T07:58:22;8.7;;;20.9;;
70014;SDS011;57358;51.094;6.760;2024-03-23T08:03:22;7.5;;;16.8;;
70014;SDS011;57358;51.094;6.760;2024-03-23T08:08:21;8.2;;;17.7;;
70014;SDS011;57358;51.094;6.760;2024-03-23T08:13:20;7.4;;;16.2;;
70014;SDS011;57358;51.094;6.760;2024-03-23T08:18:20;7.7;;;11.7;;
70014;SDS011;57358;51.094;6.760;2024-03-23T08:23:19;6.9;;;10.6;;
70014;SDS011;57358;51.094;6.760;2024-03-23T08:28:18;6.5;;;10.6;;
70014;SDS011;57358;51.094;6.760;2024-03-23T08:33:18;6.1;;;14;;
70014;SDS011;57358;51.094;6.760;2024-03-23T08:38:17;6.4;;;10.8;;
70014;SDS011;57358;51.094;6.760;2024-03-23T08:43:16;7.7;;;19.6;;
70014;SDS011;57358;51.094;6.760;2024-03-23T08:48:16;7.1;;;12.1;;
70014;SDS011;57358;51.094;6.760;2024-03-23T08:53:15;6.8;;;14.9;;
70014;SDS011;57358;51.094;6.760;2024-03-23T08:58:14;7.4;;;14.9;;
70014;SDS011;57358;51.094;6.760;2024-03-23T09:03:14;7.6;;;14.9;;
70014;SDS011;57358;51.094;6.760;2024-03-23T09:09:18;11.5;;;18.6;;
70014;SDS011;57358;51.094;6.760;2024-03-23T09:13:13;8;;;19;;
70014;SDS011;57358;51.094;6.760;2024-03-23T09:18:12;7.3;;;15.9;;
70014;SDS011;57358;51.094;6.760;2024-03-23T09:23:11;7.4;;;14.4;;
70014;SDS011;57358;51.094;6.760;2024-03-23T09:28:11;7.2;;;13.3;;
70014;SDS011;57358;51.094;6.760;2024-03-23T09:33:11;7.4;;;13.6;;
70014;SDS011;57358;51.094;6.760;2024-03-23T09:38:10;6.7;;;10.8;;
70014;SDS011;57358;51.094;6.760;2024-03-23T09:43:09;6.6;;;13.1;;
70014;SDS011;57358;51.094;6.760;2024-03-23T09:48:08;6.4;;;11.6;;
70014;SDS011;57358;51.094;6.760;2024-03-23T09:53:08;6.3;;;9.8;;
70014;SDS011;57358;51.094;6.760;2024-03-23T09:58:07;6.6;;;16.8;;
70014;SDS011;57358;51.094;6.760;2024-03-23T10:03:07;6;;;9.6;;
70014;SDS011;57358;51.094;6.760;2024-03-23T10:08:17;6;;;12.5;;
70014;SDS011;57358;51.094;6.760;2024-03-23T10:13:05;5.8;;;7.9;;
70014;SDS011;57358;51.094;6.760;2024-03-23T10:18:09;5.9;;;9.8;;
70014;SDS011;57358;51.094;6.760;2024-03-23T10:23:04;5.8;;;9.9;;
70014;SDS011;57358;51.094;6.760;2024-03-23T10:28:04;5.5;;;9.7;;
70014;SDS011;57358;51.094;6.760;2024-03-23T10:33:07;5.4;;;8.4;;
70014;SDS011;57358;51.094;6.760;2024-03-23T10:38:04;5.5;;;10.8;;
70014;SDS011;57358;51.094;6.760;2024-03-23T10:43:02;5.6;;;7.9;;
70014;SDS011;57358;51.094;6.760;2024-03-23T10:48:01;5.3;;;8.4;;
70014;SDS011;57358;51.094;6.760;2024-03-23T10:53:01;5.6;;;9.8;;
70014;SDS011;57358;51.094;6.760;2024-03-23T10:58:00;4.8;;;5.8;;
70014;SDS011;57358;51.094;6.760;2024-03-23T11:02:59;4.2;;;4.5;;
70014;SDS011;57358;51.094;6.760;2024-03-23T11:07:59;4.4;;;4.9;;
70014;SDS011;57358;51.094;6.760;2024-03-23T11:12:58;4.1;;;4.4;;
70014;SDS011;57358;51.094;6.760;2024-03-23T11:18:02;4;;;4.6;;
70014;SDS011;57358;51.094;6.760;2024-03-23T11:22:57;4.3;;;4.7;;
70014;SDS011;57358;51.094;6.760;2024-03-23T11:27:56;4.1;;;4.6;;
70014;SDS011;57358;51.094;6.760;2024-03-23T11:32:56;4.8;;;7.3;;
70014;SDS011;57358;51.094;6.760;2024-03-23T11:39:22;4.5;;;5;;
70014;SDS011;57358;51.094;6.760;2024-03-23T11:42:55;4.6;;;5.4;;
70014;SDS011;57358;51.094;6.760;2024-03-23T11:48:05;5.3;;;9.4;;
70014;SDS011;57358;51.094;6.760;2024-03-23T11:52:53;5.5;;;7.2;;
70014;SDS011;57358;51.094;6.760;2024-03-23T11:57:52;5.4;;;10.2;;
70014;SDS011;57358;51.094;6.760;2024-03-23T12:02:51;4.6;;;5.1;;
70014;SDS011;57358;51.094;6.760;2024-03-23T12:07:51;4.6;;;5;;
70014;SDS011;57358;51.094;6.760;2024-03-23T12:12:59;4.4;;;4.8;;
70014;SDS011;57358;51.094;6.760;2024-03-23T12:17:49;4.1;;;4.5;;
70014;SDS011;57358;51.094;6.760;2024-03-23T12:22:49;4.5;;;4.9;;
70014;SDS011;57358;51.094;6.760;2024-03-23T12:27:48;4.8;;;5.3;;
70014;SDS011;57358;51.094;6.760;2024-03-23T12:32:47;3.9;;;4.2;;
70014;SDS011;57358;51.094;6.760;2024-03-23T12:37:47;4;;;4.4;;
70014;SDS011;57358;51.094;6.760;2024-03-23T12:42:46;4.3;;;4.7;;
70014;SDS011;57358;51.094;6.760;2024-03-23T12:47:45;4.3;;;4.8;;
70014;SDS011;57358;51.094;6.760;2024-03-23T12:52:45;4.4;;;4.9;;
70014;SDS011;57358;51.094;6.760;2024-03-23T12:57:44;4.8;;;7.1;;
70014;SDS011;57358;51.094;6.760;2024-03-23T13:02:44;4.7;;;6.3;;
70014;SDS011;57358;51.094;6.760;2024-03-23T13:07:43;4.4;;;5.4;;
70014;SDS011;57358;51.094;6.760;2024-03-23T13:12:42;5;;;6.1;;
70014;SDS011;57358;51.094;6.760;2024-03-23T13:17:41;5.1;;;6.3;;
70014;SDS011;57358;51.094;6.760;2024-03-23T13:22:41;5;;;5.6;;
70014;SDS011;57358;51.094;6.760;2024-03-23T13:27:40;5.5;;;8.4;;
70014;SDS011;57358;51.094;6.760;2024-03-23T13:32:40;6.1;;;7.8;;
70014;SDS011;57358;51.094;6.760;2024-03-23T13:37:39;4.9;;;5.4;;
70014;SDS011;57358;51.094;6.760;2024-03-23T13:42:39;4.8;;;5.1;;
70014;SDS011;57358;51.094;6.760;2024-03-23T13:47:38;4.9;;;5.5;;
70014;SDS011;57358;51.094;6.760;2024-03-23T13:52:37;5;;;7.8;;
70014;SDS011;57358;51.094;6.760;2024-03-23T13:57:37;5.2;;;6.6;;
70014;SDS011;57358;51.094;6.760;2024-03-23T14:02:36;5.5;;;6;;
70014;SDS011;57358;51.094;6.760;2024-03-23T14:07:36;4.9;;;5.4;;
70014;SDS011;57358;51.094;6.760;2024-03-23T14:12:35;5.1;;;6.1;;
70014;SDS011;57358;51.094;6.760;2024-03-23T14:17:34;5.3;;;6.8;;
70014;SDS011;57358;51.094;6.760;2024-03-23T14:22:34;5.2;;;7.6;;
70014;SDS011;57358;51.094;6.760;2024-03-23T14:27:33;4.9;;;5.5;;
70014;SDS011;57358;51.094;6.760;2024-03-23T14:32:33;4.9;;;5.5;;
70014;SDS011;57358;51.094;6.760;2024-03-23T14:37:32;5;;;5.6;;
70014;SDS011;57358;51.094;6.760;2024-03-23T14:42:32;5.3;;;6.5;;
70014;SDS011;57358;51.094;6.760;2024-03-23T14:47:31;4.8;;;5.3;;
70014;SDS011;57358;51.094;6.760;2024-03-23T14:52:30;4.9;;;5.8;;
70014;SDS011;57358;51.094;6.760;2024-03-23T14:57:30;4.7;;;5;;
70014;SDS011;57358;51.094;6.760;2024-03-23T15:02:29;5;;;5.4;;
70014;SDS011;57358;51.094;6.760;2024-03-23T15:07:28;4.6;;;5.1;;
70014;SDS011;57358;51.094;6.760;2024-03-23T15:12:28;4.8;;;5.2;;
70014;SDS011;57358;51.094;6.760;2024-03-23T15:17:27;4.7;;;5.2;;
70014;SDS011;57358;51.094;6.760;2024-03-23T15:22:26;4.9;;;5.3;;
70014;SDS011;57358;51.094;6.760;2024-03-23T15:27:26;5.2;;;5.7;;
70014;SDS011;57358;51.094;6.760;2024-03-23T15:32:25;5.2;;;5.7;;
70014;SDS011;57358;51.094;6.760;2024-03-23T15:37:25;4.9;;;7.9;;
70014;SDS011;57358;51.094;6.760;2024-03-23T15:42:24;4.9;;;5.3;;
70014;SDS011;57358;51.094;6.760;2024-03-23T15:47:23;4.5;;;4.9;;
70014;SDS011;57358;51.094;6.760;2024-03-23T15:52:23;5;;;5.5;;
70014;SDS011;57358;51.094;6.760;2024-03-23T15:57:22;4.9;;;7.1;;
70014;SDS011;57358;51.094;6.760;2024-03-23T16:02:21;5.1;;;5.6;;
70014;SDS011;57358;51.094;6.760;2024-03-23T16:07:21;4.8;;;5.5;;
70014;SDS011;57358;51.094;6.760;2024-03-23T16:12:20;5;;;7.7;;
70014;SDS011;57358;51.094;6.760;2024-03-23T16:17:20;5.6;;;9.3;;
70014;SDS011;57358;51.094;6.760;2024-03-23T16:22:19;5.2;;;7.1;;
70014;SDS011;57358;51.094;6.760;2024-03-23T16:27:18;5;;;7.5;;
70014;SDS011;57358;51.094;6.760;2024-03-23T16:32:18;5.4;;;6;;
70014;SDS011;57358;51.094;6.760;2024-03-23T16:37:17;5.2;;;6.8;;
70014;SDS011;57358;51.094;6.760;2024-03-23T16:42:16;6.1;;;7.1;;
70014;SDS011;57358;51.094;6.760;2024-03-23T16:47:16;5.5;;;8.1;;
70014;SDS011;57358;51.094;6.760;2024-03-23T16:52:15;6;;;7.7;;
70014;SDS011;57358;51.094;6.760;2024-03-23T16:57:14;5.5;;;6.2;;
70014;SDS011;57358;51.094;6.760;2024-03-23T17:02:14;5.4;;;7.9;;
70014;SDS011;57358;51.094;6.760;2024-03-23T17:07:13;5.1;;;5.6;;
70014;SDS011;57358;51.094;6.760;2024-03-23T17:12:12;6.6;;;8.1;;
70014;SDS011;57358;51.094;6.760;2024-03-23T17:17:12;5.1;;;6.9;;
70014;SDS011;57358;51.094;6.760;2024-03-23T17:22:12;5.3;;;6.6;;
70014;SDS011;57358;51.094;6.760;2024-03-23T17:27:11;5.7;;;8.8;;
70014;SDS011;57358;51.094;6.760;2024-03-23T17:32:10;5.3;;;5.8;;
70014;SDS011;57358;51.094;6.760;2024-03-23T17:37:09;5.3;;;6.8;;
70014;SDS011;57358;51.094;6.760;2024-03-23T17:42:09;5.4;;;6.6;;
70014;SDS011;57358;51.094;6.760;2024-03-23T17:47:08;5.1;;;5.7;;
70014;SDS011;57358;51.094;6.760;2024-03-23T17:52:08;5.1;;;7.7;;
70014;SDS011;57358;51.094;6.760;2024-03-23T17:57:07;4.9;;;5.3;;
70014;SDS011;57358;51.094;6.760;2024-03-23T18:02:06;5;;;7.1;;
70014;SDS011;57358;51.094;6.760;2024-03-23T18:07:05;4.9;;;5.7;;
70014;SDS011;57358;51.094;6.760;2024-03-23T18:12:05;4.5;;;4.8;;
70014;SDS011;57358;51.094;6.760;2024-03-23T18:17:04;5;;;5.6;;
70014;SDS011;57358;51.094;6.760;2024-03-23T18:22:03;4.7;;;7.6;;
70014;SDS011;57358;51.094;6.760;2024-03-23T18:27:03;4.9;;;7;;
70014;SDS011;57358;51.094;6.760;2024-03-23T18:32:02;4.6;;;5.6;;
70014;SDS011;57358;51.094;6.760;2024-03-23T18:37:01;4.8;;;6.5;;
70014;SDS011;57358;51.094;6.760;2024-03-23T18:42:00;4.6;;;5;;
70014;SDS011;57358;51.094;6.760;2024-03-23T18:46:59;5;;;6.5;;
70014;SDS011;57358;51.094;6.760;2024-03-23T18:51:59;5;;;5.5;;
70014;SDS011;57358;51.094;6.760;2024-03-23T18:56:58;5.4;;;6.4;;
70014;SDS011;57358;51.094;6.760;2024-03-23T19:01:57;4.8;;;5.8;;
70014;SDS011;57358;51.094;6.760;2024-03-23T19:06:57;7.4;;;10.8;;
70014;SDS011;57358;51.094;6.760;2024-03-23T19:11:56;5.9;;;8.6;;
70014;SDS011;57358;51.094;6.760;2024-03-23T19:16:55;5.6;;;6.2;;
70014;SDS011;57358;51.094;6.760;2024-03-23T19:21:54;5.1;;;6.1;;
70014;SDS011;57358;51.094;6.760;2024-03-23T19:26:54;5.5;;;6.9;;
70014;SDS011;57358;51.094;6.760;2024-03-23T19:31:53;5.3;;;6.8;;
70014;SDS011;57358;51.094;6.760;2024-03-23T19:36:52;5.6;;;7.4;;
70014;SDS011;57358;51.094;6.760;2024-03-23T19:41:51;5.7;;;11.4;;
70014;SDS011;57358;51.094;6.760;2024-03-23T19:46:51;5.8;;;6.8;;
70014;SDS011;57358;51.094;6.760;2024-03-23T19:51:50;6;;;8.2;;
70014;SDS011;57358;51.094;6.760;2024-03-23T19:56:49;6;;;7.1;;
70014;SDS011;57358;51.094;6.760;2024-03-23T20:01:48;5.7;;;7.9;;
70014;SDS011;57358;51.094;6.760;2024-03-23T20:06:48;5.8;;;8.3;;
70014;SDS011;57358;51.094;6.760;2024-03-23T20:11:47;6;;;10.2;;
70014;SDS011;57358;51.094;6.760;2024-03-23T20:16:46;6;;;9.9;;
70014;SDS011;57358;51.094;6.760;2024-03-23T20:21:45;6;;;7.4;;
70014;SDS011;57358;51.094;6.760;2024-03-23T20:26:45;5.9;;;10.7;;
70014;SDS011;57358;51.094;6.760;2024-03-23T20:31:44;6.1;;;7.1;;
70014;SDS011;57358;51.094;6.760;2024-03-23T20:36:43;5.5;;;7.2;;
70014;SDS011;57358;51.094;6.760;2024-03-23T20:41:42;5.5;;;7.4;;
70014;SDS011;57358;51.094;6.760;2024-03-23T20:46:42;5.3;;;7.7;;
70014;SDS011;57358;51.094;6.760;2024-03-23T20:51:41;5.1;;;8.6;;
70014;SDS011;57358;51.094;6.760;2024-03-23T20:56:40;6.1;;;13.3;;
70014;SDS011;57358;51.094;6.760;2024-03-23T21:01:39;5.5;;;9.3;;
70014;SDS011;57358;51.094;6.760;2024-03-23T21:06:39;5.1;;;9.2;;
70014;SDS011;57358;51.094;6.760;2024-03-23T21:11:38;5.1;;;9.3;;
70014;SDS011;57358;51.094;6.760;2024-03-23T21:16:37;5.4;;;10.9;;
70014;SDS011;57358;51.094;6.760;2024-03-23T21:21:36;5;;;6.6;;
70014;SDS011;57358;51.094;6.760;2024-03-23T21:26:36;5.8;;;10.6;;
70014;SDS011;57358;51.094;6.760;2024-03-23T21:31:35;5.2;;;9.5;;
70014;SDS011;57358;51.094;6.760;2024-03-23T21:36:34;5.5;;;11.4;;
70014;SDS011;57358;51.094;6.760;2024-03-23T21:41:33;4.9;;;6.9;;
70014;SDS011;57358;51.094;6.760;2024-03-23T21:46:33;5;;;6.7;;
70014;SDS011;57358;51.094;6.760;2024-03-23T21:51:32;4.9;;;8.9;;
70014;SDS011;57358;51.094;6.760;2024-03-23T21:56:31;5.3;;;7.7;;
70014;SDS011;57358;51.094;6.760;2024-03-23T22:01:30;5.1;;;7.8;;
70014;SDS011;57358;51.094;6.760;2024-03-23T22:06:30;5.5;;;11.7;;
70014;SDS011;57358;51.094;6.760;2024-03-23T22:11:29;5.3;;;12.4;;
70014;SDS011;57358;51.094;6.760;2024-03-23T22:16:28;5.5;;;8.2;;
70014;SDS011;57358;51.094;6.760;2024-03-23T22:21:27;5.4;;;9.3;;
70014;SDS011;57358;51.094;6.760;2024-03-23T22:26:26;5.2;;;9.2;;
70014;SDS011;57358;51.094;6.760;2024-03-23T22:31:26;5.1;;;8;;
70014;SDS011;57358;51.094;6.760;2024-03-23T22:36:25;5.1;;;7;;
70014;SDS011;57358;51.094;6.760;2024-03-23T22:41:24;4.9;;;8.1;;
70014;SDS011;57358;51.094;6.760;2024-03-23T22:46:23;5.3;;;5.9;;
70014;SDS011;57358;51.094;6.760;2024-03-23T22:51:23;5.2;;;6.5;;
70014;SDS011;57358;51.094;6.760;2024-03-23T22:56:22;5;;;7.1;;
70014;SDS011;57358;51.094;6.760;2024-03-23T23:01:21;4.6;;;9.2;;
70014;SDS011;57358;51.094;6.760;2024-03-23T23:06:20;4.9;;;6;;
70014;SDS011;57358;51.094;6.760;2024-03-23T23:11:19;4.9;;;5.8;;
70014;SDS011;57358;51.094;6.760;2024-03-23T23:16:19;5.2;;;5.8;;
70014;SDS011;57358;51.094;6.760;2024-03-23T23:21:18;4.8;;;6.6;;
70014;SDS011;57358;51.094;6.760;2024-03-23T23:26:17;5.2;;;6.9;;
70014;SDS011;57358;51.094;6.760;2024-03-23T23:31:16;4.8;;;5.3;;
70014;SDS011;57358;51.094;6.760;2024-03-23T23:36:16;4.9;;;5.3;;
70014;SDS011;57358;51.094;6.760;2024-03-23T23:41:15;4.9;;;5.3;;
70014;SDS011;57358;51.094;6.760;2024-03-23T23:46:14;5.1;;;6.4;;
70014;SDS011;57358;51.094;6.760;2024-03-23T23:51:13;5.2;;;6;;
70014;SDS011;57358;51.094;6.760;2024-03-23T23:56:12;5.5;;;10.5;;
